sensor_id;sensor_type;location;lat;lon;timestamp;P1;durP1;ratioP1;P2;durP2;ratioP2
46006;SDS011;31738;50.188;8.524;2023-02-28T00:02:17;6.20;;;3.60;;
46006;SDS011;31738;50.188;8.524;2023-02-28T00:04:43;6.50;;;3.58;;
46006;SDS011;31738;50.188;8.524;2023-02-28T00:07:09;6.18;;;3.85;;
46006;SDS011;31738;50.188;8.524;2023-02-28T00:09:34;6.70;;;3.45;;
46006;SDS011;31738;50.188;8.524;2023-02-28T00:12:00;4.20;;;3.60;;
46006;SDS011;31738;50.188;8.524;2023-02-28T00:14:29;6.63;;;3.90;;
46006;SDS011;31738;50.188;8.524;2023-02-28T00:16:55;5.93;;;3.50;;
46006;SDS011;31738;50.188;8.524;2023-02-28T00:19:20;6.03;;;3.90;;
46006;SDS011;31738;50.188;8.524;2023-02-28T00:21:46;5.93;;;3.88;;
46006;SDS011;31738;50.188;8.524;2023-02-28T00:24:11;5.18;;;3.72;;
46006;SDS011;31738;50.188;8.524;2023-02-28T00:26:37;6.53;;;4.78;;
46006;SDS011;31738;50.188;8.524;2023-02-28T00:29:02;5.40;;;4.20;;
46006;SDS011;31738;50.188;8.524;2023-02-28T00:31:28;8.45;;;4.93;;
46006;SDS011;31738;50.188;8.524;2023-02-28T00:33:53;7.75;;;4.50;;
46006;SDS011;31738;50.188;8.524;2023-02-28T00:36:19;10.15;;;5.03;;
46006;SDS011;31738;50.188;8.524;2023-02-28T00:38:45;7.13;;;4.85;;
46006;SDS011;31738;50.188;8.524;2023-02-28T00:41:10;6.88;;;4.65;;
46006;SDS011;31738;50.188;8.524;2023-02-28T00:43:37;9.63;;;5.18;;
46006;SDS011;31738;50.188;8.524;2023-02-28T00:46:04;8.52;;;5.15;;
46006;SDS011;31738;50.188;8.524;2023-02-28T00:48:30;9.18;;;4.85;;
46006;SDS011;31738;50.188;8.524;2023-02-28T00:50:56;6.78;;;4.95;;
46006;SDS011;31738;50.188;8.524;2023-02-28T00:53:21;9.27;;;5.82;;
46006;SDS011;31738;50.188;8.524;2023-02-28T00:55:48;8.45;;;5.82;;
46006;SDS011;31738;50.188;8.524;2023-02-28T00:58:14;8.45;;;5.32;;
46006;SDS011;31738;50.188;8.524;2023-02-28T01:00:39;10.90;;;5.90;;
46006;SDS011;31738;50.188;8.524;2023-02-28T01:03:04;10.80;;;5.47;;
46006;SDS011;31738;50.188;8.524;2023-02-28T01:05:30;8.55;;;5.07;;
46006;SDS011;31738;50.188;8.524;2023-02-28T01:07:55;7.78;;;5.35;;
46006;SDS011;31738;50.188;8.524;2023-02-28T01:10:22;9.27;;;5.97;;
46006;SDS011;31738;50.188;8.524;2023-02-28T01:12:48;11.40;;;5.95;;
46006;SDS011;31738;50.188;8.524;2023-02-28T01:15:14;9.55;;;5.85;;
46006;SDS011;31738;50.188;8.524;2023-02-28T01:17:40;8.90;;;5.40;;
46006;SDS011;31738;50.188;8.524;2023-02-28T01:20:06;10.70;;;5.80;;
46006;SDS011;31738;50.188;8.524;2023-02-28T01:22:31;11.65;;;5.63;;
46006;SDS011;31738;50.188;8.524;2023-02-28T01:24:57;8.18;;;5.55;;
46006;SDS011;31738;50.188;8.524;2023-02-28T01:27:22;9.48;;;5.78;;
46006;SDS011;31738;50.188;8.524;2023-02-28T01:29:48;10.85;;;5.13;;
46006;SDS011;31738;50.188;8.524;2023-02-28T01:32:14;11.48;;;5.22;;
46006;SDS011;31738;50.188;8.524;2023-02-28T01:34:40;8.65;;;5.10;;
46006;SDS011;31738;50.188;8.524;2023-02-28T01:37:05;9.55;;;5.30;;
46006;SDS011;31738;50.188;8.524;2023-02-28T01:39:31;8.18;;;5.32;;
46006;SDS011;31738;50.188;8.524;2023-02-28T01:41:56;9.00;;;5.25;;
46006;SDS011;31738;50.188;8.524;2023-02-28T01:47:20;8.15;;;5.13;;
46006;SDS011;31738;50.188;8.524;2023-02-28T01:49:46;6.90;;;5.35;;
46006;SDS011;31738;50.188;8.524;2023-02-28T01:52:12;8.43;;;5.32;;
46006;SDS011;31738;50.188;8.524;2023-02-28T01:54:47;10.10;;;5.25;;
46006;SDS011;31738;50.188;8.524;2023-02-28T01:57:18;10.57;;;5.13;;
46006;SDS011;31738;50.188;8.524;2023-02-28T01:59:59;9.25;;;4.63;;
46006;SDS011;31738;50.188;8.524;2023-02-28T02:02:38;8.20;;;4.68;;
46006;SDS011;31738;50.188;8.524;2023-02-28T02:05:12;12.73;;;5.53;;
46006;SDS011;31738;50.188;8.524;2023-02-28T02:07:41;7.05;;;4.68;;
46006;SDS011;31738;50.188;8.524;2023-02-28T02:10:19;9.10;;;5.05;;
46006;SDS011;31738;50.188;8.524;2023-02-28T02:13:01;9.73;;;4.45;;
46006;SDS011;31738;50.188;8.524;2023-02-28T02:18:33;8.18;;;4.78;;
46006;SDS011;31738;50.188;8.524;2023-02-28T02:21:16;5.47;;;3.80;;
46006;SDS011;31738;50.188;8.524;2023-02-28T02:34:08;6.05;;;3.92;;
46006;SDS011;31738;50.188;8.524;2023-02-28T02:36:48;7.07;;;4.07;;
46006;SDS011;31738;50.188;8.524;2023-02-28T02:40:19;6.32;;;4.20;;
46006;SDS011;31738;50.188;8.524;2023-02-28T02:42:54;8.90;;;3.80;;
46006;SDS011;31738;50.188;8.524;2023-02-28T02:45:28;7.95;;;4.57;;
46006;SDS011;31738;50.188;8.524;2023-02-28T02:48:00;8.82;;;4.20;;
46006;SDS011;31738;50.188;8.524;2023-02-28T02:50:30;9.30;;;4.45;;
46006;SDS011;31738;50.188;8.524;2023-02-28T02:53:17;8.45;;;4.55;;
46006;SDS011;31738;50.188;8.524;2023-02-28T02:55:47;7.43;;;4.43;;
46006;SDS011;31738;50.188;8.524;2023-02-28T02:58:20;6.50;;;4.18;;
46006;SDS011;31738;50.188;8.524;2023-02-28T03:00:51;8.93;;;4.63;;
46006;SDS011;31738;50.188;8.524;2023-02-28T03:03:20;7.65;;;4.50;;
46006;SDS011;31738;50.188;8.524;2023-02-28T03:05:54;6.07;;;3.92;;
46006;SDS011;31738;50.188;8.524;2023-02-28T03:08:21;7.80;;;4.63;;
46006;SDS011;31738;50.188;8.524;2023-02-28T03:10:51;8.68;;;4.72;;
46006;SDS011;31738;50.188;8.524;2023-02-28T03:16:41;5.70;;;4.00;;
46006;SDS011;31738;50.188;8.524;2023-02-28T03:19:31;9.30;;;4.70;;
46006;SDS011;31738;50.188;8.524;2023-02-28T03:24:53;8.68;;;4.70;;
46006;SDS011;31738;50.188;8.524;2023-02-28T03:28:27;7.82;;;4.72;;
46006;SDS011;31738;50.188;8.524;2023-02-28T03:31:12;10.98;;;4.70;;
46006;SDS011;31738;50.188;8.524;2023-02-28T03:33:44;7.47;;;4.45;;
46006;SDS011;31738;50.188;8.524;2023-02-28T03:36:36;6.00;;;4.00;;
46006;SDS011;31738;50.188;8.524;2023-02-28T03:39:36;7.05;;;4.60;;
46006;SDS011;31738;50.188;8.524;2023-02-28T03:42:10;10.48;;;5.10;;
46006;SDS011;31738;50.188;8.524;2023-02-28T03:44:43;7.05;;;4.47;;
46006;SDS011;31738;50.188;8.524;2023-02-28T03:50:13;6.38;;;4.30;;
46006;SDS011;31738;50.188;8.524;2023-02-28T03:52:50;9.75;;;4.68;;
46006;SDS011;31738;50.188;8.524;2023-02-28T03:55:25;8.60;;;4.50;;
46006;SDS011;31738;50.188;8.524;2023-02-28T04:00:20;8.07;;;4.60;;
46006;SDS011;31738;50.188;8.524;2023-02-28T04:02:49;6.45;;;4.20;;
46006;SDS011;31738;50.188;8.524;2023-02-28T04:05:18;6.40;;;4.07;;
46006;SDS011;31738;50.188;8.524;2023-02-28T04:07:44;4.97;;;3.80;;
46006;SDS011;31738;50.188;8.524;2023-02-28T04:10:11;6.22;;;4.15;;
46006;SDS011;31738;50.188;8.524;2023-02-28T04:12:37;6.93;;;3.97;;
46006;SDS011;31738;50.188;8.524;2023-02-28T04:15:05;5.88;;;4.20;;
46006;SDS011;31738;50.188;8.524;2023-02-28T04:17:53;7.38;;;3.90;;
46006;SDS011;31738;50.188;8.524;2023-02-28T04:20:18;7.60;;;4.20;;
46006;SDS011;31738;50.188;8.524;2023-02-28T04:22:47;6.18;;;3.70;;
46006;SDS011;31738;50.188;8.524;2023-02-28T04:25:12;9.32;;;4.05;;
46006;SDS011;31738;50.188;8.524;2023-02-28T04:27:37;8.60;;;4.47;;
46006;SDS011;31738;50.188;8.524;2023-02-28T04:30:03;5.80;;;3.80;;
46006;SDS011;31738;50.188;8.524;2023-02-28T04:32:29;4.50;;;3.47;;
46006;SDS011;31738;50.188;8.524;2023-02-28T04:34:54;7.05;;;3.78;;
46006;SDS011;31738;50.188;8.524;2023-02-28T04:37:20;5.72;;;3.60;;
46006;SDS011;31738;50.188;8.524;2023-02-28T04:39:46;11.15;;;4.03;;
46006;SDS011;31738;50.188;8.524;2023-02-28T04:42:12;6.78;;;3.67;;
46006;SDS011;31738;50.188;8.524;2023-02-28T04:44:37;5.13;;;3.33;;
46006;SDS011;31738;50.188;8.524;2023-02-28T04:47:03;6.55;;;3.60;;
46006;SDS011;31738;50.188;8.524;2023-02-28T04:49:28;9.35;;;3.72;;
46006;SDS011;31738;50.188;8.524;2023-02-28T04:51:54;5.32;;;3.70;;
46006;SDS011;31738;50.188;8.524;2023-02-28T04:54:20;5.22;;;3.60;;
46006;SDS011;31738;50.188;8.524;2023-02-28T04:56:45;7.85;;;3.42;;
46006;SDS011;31738;50.188;8.524;2023-02-28T04:59:10;4.70;;;3.33;;
46006;SDS011;31738;50.188;8.524;2023-02-28T05:01:36;5.22;;;3.25;;
46006;SDS011;31738;50.188;8.524;2023-02-28T05:04:02;8.40;;;3.00;;
46006;SDS011;31738;50.188;8.524;2023-02-28T05:06:29;4.88;;;3.13;;
46006;SDS011;31738;50.188;8.524;2023-02-28T05:08:57;7.53;;;3.28;;
46006;SDS011;31738;50.188;8.524;2023-02-28T05:13:54;6.07;;;2.97;;
46006;SDS011;31738;50.188;8.524;2023-02-28T05:16:19;6.40;;;3.05;;
46006;SDS011;31738;50.188;8.524;2023-02-28T05:18:45;5.57;;;3.45;;
46006;SDS011;31738;50.188;8.524;2023-02-28T05:21:24;5.22;;;3.08;;
46006;SDS011;31738;50.188;8.524;2023-02-28T05:23:50;6.38;;;3.30;;
46006;SDS011;31738;50.188;8.524;2023-02-28T05:26:16;8.13;;;3.35;;
46006;SDS011;31738;50.188;8.524;2023-02-28T05:28:42;7.05;;;3.60;;
46006;SDS011;31738;50.188;8.524;2023-02-28T05:31:08;4.78;;;3.25;;
46006;SDS011;31738;50.188;8.524;2023-02-28T05:33:36;7.53;;;3.35;;
46006;SDS011;31738;50.188;8.524;2023-02-28T05:36:01;5.38;;;3.00;;
46006;SDS011;31738;50.188;8.524;2023-02-28T05:38:27;7.95;;;4.20;;
46006;SDS011;31738;50.188;8.524;2023-02-28T05:40:52;7.13;;;2.67;;
46006;SDS011;31738;50.188;8.524;2023-02-28T05:43:18;6.40;;;3.50;;
46006;SDS011;31738;50.188;8.524;2023-02-28T05:45:44;5.32;;;3.67;;
46006;SDS011;31738;50.188;8.524;2023-02-28T05:48:09;7.70;;;3.65;;
46006;SDS011;31738;50.188;8.524;2023-02-28T05:50:35;6.80;;;3.20;;
46006;SDS011;31738;50.188;8.524;2023-02-28T05:53:01;5.25;;;2.90;;
46006;SDS011;31738;50.188;8.524;2023-02-28T05:55:26;7.53;;;3.97;;
46006;SDS011;31738;50.188;8.524;2023-02-28T05:57:52;5.25;;;3.50;;
46006;SDS011;31738;50.188;8.524;2023-02-28T06:00:17;8.10;;;3.70;;
46006;SDS011;31738;50.188;8.524;2023-02-28T06:02:43;5.32;;;3.38;;
46006;SDS011;31738;50.188;8.524;2023-02-28T06:05:16;7.22;;;3.92;;
46006;SDS011;31738;50.188;8.524;2023-02-28T06:07:43;8.48;;;3.67;;
46006;SDS011;31738;50.188;8.524;2023-02-28T06:10:09;6.22;;;3.70;;
46006;SDS011;31738;50.188;8.524;2023-02-28T06:12:36;9.50;;;4.07;;
46006;SDS011;31738;50.188;8.524;2023-02-28T06:15:02;9.82;;;4.30;;
46006;SDS011;31738;50.188;8.524;2023-02-28T06:17:28;8.07;;;4.80;;
46006;SDS011;31738;50.188;8.524;2023-02-28T06:19:53;8.38;;;4.65;;
46006;SDS011;31738;50.188;8.524;2023-02-28T06:22:19;6.55;;;3.75;;
46006;SDS011;31738;50.188;8.524;2023-02-28T06:24:44;6.53;;;4.13;;
46006;SDS011;31738;50.188;8.524;2023-02-28T06:27:10;6.72;;;4.50;;
46006;SDS011;31738;50.188;8.524;2023-02-28T06:29:38;5.80;;;3.67;;
46006;SDS011;31738;50.188;8.524;2023-02-28T06:32:07;8.90;;;3.75;;
46006;SDS011;31738;50.188;8.524;2023-02-28T06:34:32;5.80;;;3.72;;
46006;SDS011;31738;50.188;8.524;2023-02-28T06:36:59;6.22;;;4.10;;
46006;SDS011;31738;50.188;8.524;2023-02-28T06:39:27;7.13;;;4.05;;
46006;SDS011;31738;50.188;8.524;2023-02-28T06:41:54;9.60;;;4.00;;
46006;SDS011;31738;50.188;8.524;2023-02-28T06:44:19;7.88;;;3.40;;
46006;SDS011;31738;50.188;8.524;2023-02-28T06:46:45;7.82;;;3.38;;
46006;SDS011;31738;50.188;8.524;2023-02-28T06:49:11;5.78;;;3.58;;
46006;SDS011;31738;50.188;8.524;2023-02-28T06:51:38;7.03;;;3.83;;
46006;SDS011;31738;50.188;8.524;2023-02-28T06:54:04;5.35;;;2.72;;
46006;SDS011;31738;50.188;8.524;2023-02-28T06:56:34;8.98;;;4.10;;
46006;SDS011;31738;50.188;8.524;2023-02-28T06:59:00;5.88;;;2.25;;
46006;SDS011;31738;50.188;8.524;2023-02-28T07:01:26;5.45;;;3.35;;
46006;SDS011;31738;50.188;8.524;2023-02-28T07:03:53;7.38;;;3.70;;
46006;SDS011;31738;50.188;8.524;2023-02-28T07:06:19;6.28;;;3.75;;
46006;SDS011;31738;50.188;8.524;2023-02-28T07:08:47;6.38;;;3.90;;
46006;SDS011;31738;50.188;8.524;2023-02-28T07:11:13;7.78;;;3.58;;
46006;SDS011;31738;50.188;8.524;2023-02-28T07:13:39;8.68;;;4.20;;
46006;SDS011;31738;50.188;8.524;2023-02-28T07:16:05;9.40;;;4.35;;
46006;SDS011;31738;50.188;8.524;2023-02-28T07:18:34;8.88;;;4.68;;
46006;SDS011;31738;50.188;8.524;2023-02-28T07:21:01;9.27;;;4.95;;
46006;SDS011;31738;50.188;8.524;2023-02-28T07:23:27;8.35;;;4.43;;
46006;SDS011;31738;50.188;8.524;2023-02-28T07:25:53;8.48;;;4.45;;
46006;SDS011;31738;50.188;8.524;2023-02-28T07:28:18;7.95;;;4.47;;
46006;SDS011;31738;50.188;8.524;2023-02-28T07:30:44;11.00;;;5.00;;
46006;SDS011;31738;50.188;8.524;2023-02-28T07:33:09;7.72;;;4.75;;
46006;SDS011;31738;50.188;8.524;2023-02-28T07:35:35;7.18;;;4.68;;
46006;SDS011;31738;50.188;8.524;2023-02-28T07:38:01;8.80;;;5.57;;
46006;SDS011;31738;50.188;8.524;2023-02-28T07:40:28;6.95;;;4.78;;
46006;SDS011;31738;50.188;8.524;2023-02-28T07:42:53;10.93;;;4.88;;
46006;SDS011;31738;50.188;8.524;2023-02-28T07:45:18;9.00;;;5.28;;
46006;SDS011;31738;50.188;8.524;2023-02-28T07:47:44;9.50;;;5.18;;
46006;SDS011;31738;50.188;8.524;2023-02-28T07:50:11;6.63;;;4.32;;
46006;SDS011;31738;50.188;8.524;2023-02-28T07:52:38;8.55;;;5.20;;
46006;SDS011;31738;50.188;8.524;2023-02-28T07:55:04;9.85;;;5.22;;
46006;SDS011;31738;50.188;8.524;2023-02-28T07:57:30;10.52;;;5.97;;
46006;SDS011;31738;50.188;8.524;2023-02-28T07:59:55;14.27;;;5.72;;
46006;SDS011;31738;50.188;8.524;2023-02-28T08:02:21;8.20;;;5.07;;
46006;SDS011;31738;50.188;8.524;2023-02-28T08:04:47;9.43;;;5.18;;
46006;SDS011;31738;50.188;8.524;2023-02-28T08:07:13;12.07;;;5.10;;
46006;SDS011;31738;50.188;8.524;2023-02-28T08:09:40;9.25;;;5.55;;
46006;SDS011;31738;50.188;8.524;2023-02-28T08:12:06;8.45;;;5.20;;
46006;SDS011;31738;50.188;8.524;2023-02-28T08:14:32;8.25;;;4.80;;
46006;SDS011;31738;50.188;8.524;2023-02-28T08:16:59;10.60;;;5.80;;
46006;SDS011;31738;50.188;8.524;2023-02-28T08:19:24;10.52;;;5.05;;
46006;SDS011;31738;50.188;8.524;2023-02-28T08:21:50;9.02;;;4.22;;
46006;SDS011;31738;50.188;8.524;2023-02-28T08:24:15;9.25;;;4.80;;
46006;SDS011;31738;50.188;8.524;2023-02-28T08:26:41;8.35;;;4.53;;
46006;SDS011;31738;50.188;8.524;2023-02-28T08:29:06;9.65;;;5.28;;
46006;SDS011;31738;50.188;8.524;2023-02-28T08:31:31;10.90;;;6.03;;
46006;SDS011;31738;50.188;8.524;2023-02-28T08:33:57;7.93;;;4.90;;
46006;SDS011;31738;50.188;8.524;2023-02-28T08:36:24;8.50;;;5.15;;
46006;SDS011;31738;50.188;8.524;2023-02-28T08:38:51;8.27;;;5.15;;
46006;SDS011;31738;50.188;8.524;2023-02-28T08:41:17;8.75;;;4.82;;
46006;SDS011;31738;50.188;8.524;2023-02-28T08:43:42;10.13;;;5.30;;
46006;SDS011;31738;50.188;8.524;2023-02-28T08:46:10;8.93;;;5.03;;
46006;SDS011;31738;50.188;8.524;2023-02-28T08:48:37;6.90;;;4.45;;
46006;SDS011;31738;50.188;8.524;2023-02-28T08:51:24;8.57;;;4.97;;
46006;SDS011;31738;50.188;8.524;2023-02-28T08:53:55;8.45;;;5.30;;
46006;SDS011;31738;50.188;8.524;2023-02-28T08:56:22;8.30;;;5.13;;
46006;SDS011;31738;50.188;8.524;2023-02-28T08:58:49;7.90;;;5.10;;
46006;SDS011;31738;50.188;8.524;2023-02-28T09:01:16;10.23;;;5.38;;
46006;SDS011;31738;50.188;8.524;2023-02-28T09:03:47;9.02;;;4.80;;
46006;SDS011;31738;50.188;8.524;2023-02-28T09:06:14;9.25;;;5.13;;
46006;SDS011;31738;50.188;8.524;2023-02-28T09:08:40;7.53;;;3.78;;
46006;SDS011;31738;50.188;8.524;2023-02-28T09:11:06;3.55;;;2.22;;
46006;SDS011;31738;50.188;8.524;2023-02-28T09:13:32;9.93;;;4.80;;
46006;SDS011;31738;50.188;8.524;2023-02-28T09:15:58;9.98;;;4.43;;
46006;SDS011;31738;50.188;8.524;2023-02-28T09:18:25;8.63;;;4.45;;
46006;SDS011;31738;50.188;8.524;2023-02-28T09:20:51;5.60;;;3.13;;
46006;SDS011;31738;50.188;8.524;2023-02-28T09:23:17;7.72;;;4.72;;
46006;SDS011;31738;50.188;8.524;2023-02-28T09:25:50;8.73;;;4.95;;
46006;SDS011;31738;50.188;8.524;2023-02-28T09:28:18;8.45;;;4.93;;
46006;SDS011;31738;50.188;8.524;2023-02-28T09:30:46;7.57;;;4.60;;
46006;SDS011;31738;50.188;8.524;2023-02-28T09:33:13;7.38;;;4.82;;
46006;SDS011;31738;50.188;8.524;2023-02-28T09:35:40;8.25;;;4.90;;
46006;SDS011;31738;50.188;8.524;2023-02-28T09:38:06;7.63;;;4.82;;
46006;SDS011;31738;50.188;8.524;2023-02-28T09:40:35;8.27;;;4.90;;
46006;SDS011;31738;50.188;8.524;2023-02-28T09:43:03;14.48;;;5.40;;
46006;SDS011;31738;50.188;8.524;2023-02-28T09:45:32;8.80;;;4.63;;
46006;SDS011;31738;50.188;8.524;2023-02-28T09:48:03;7.43;;;4.40;;
46006;SDS011;31738;50.188;8.524;2023-02-28T09:50:40;8.10;;;4.82;;
46006;SDS011;31738;50.188;8.524;2023-02-28T09:53:22;8.80;;;5.20;;
46006;SDS011;31738;50.188;8.524;2023-02-28T09:56:00;9.20;;;5.57;;
46006;SDS011;31738;50.188;8.524;2023-02-28T09:58:37;7.90;;;4.82;;
46006;SDS011;31738;50.188;8.524;2023-02-28T10:04:28;8.65;;;5.38;;
46006;SDS011;31738;50.188;8.524;2023-02-28T10:16:05;7.53;;;4.85;;
46006;SDS011;31738;50.188;8.524;2023-02-28T10:18:38;13.18;;;5.88;;
46006;SDS011;31738;50.188;8.524;2023-02-28T10:21:12;8.57;;;5.80;;
46006;SDS011;31738;50.188;8.524;2023-02-28T10:23:44;10.30;;;6.07;;
46006;SDS011;31738;50.188;8.524;2023-02-28T10:26:13;6.72;;;4.18;;
46006;SDS011;31738;50.188;8.524;2023-02-28T10:28:43;9.05;;;5.50;;
46006;SDS011;31738;50.188;8.524;2023-02-28T10:31:17;10.65;;;5.80;;
46006;SDS011;31738;50.188;8.524;2023-02-28T10:33:44;8.63;;;5.50;;
46006;SDS011;31738;50.188;8.524;2023-02-28T10:36:14;8.32;;;5.38;;
46006;SDS011;31738;50.188;8.524;2023-02-28T10:38:42;7.78;;;5.28;;
46006;SDS011;31738;50.188;8.524;2023-02-28T10:43:36;10.13;;;5.75;;
46006;SDS011;31738;50.188;8.524;2023-02-28T10:48:44;8.98;;;5.25;;
46006;SDS011;31738;50.188;8.524;2023-02-28T10:51:16;7.72;;;5.28;;
46006;SDS011;31738;50.188;8.524;2023-02-28T10:53:48;10.50;;;5.55;;
46006;SDS011;31738;50.188;8.524;2023-02-28T10:56:19;10.35;;;6.15;;
46006;SDS011;31738;50.188;8.524;2023-02-28T11:03:56;9.00;;;5.35;;
46006;SDS011;31738;50.188;8.524;2023-02-28T11:06:26;6.30;;;4.30;;
46006;SDS011;31738;50.188;8.524;2023-02-28T11:08:56;13.13;;;6.15;;
46006;SDS011;31738;50.188;8.524;2023-02-28T11:11:24;8.98;;;5.57;;
46006;SDS011;31738;50.188;8.524;2023-02-28T11:13:53;11.30;;;5.10;;
46006;SDS011;31738;50.188;8.524;2023-02-28T11:16:21;6.68;;;4.45;;
46006;SDS011;31738;50.188;8.524;2023-02-28T11:18:55;7.72;;;5.20;;
46006;SDS011;31738;50.188;8.524;2023-02-28T11:23:56;7.78;;;5.30;;
46006;SDS011;31738;50.188;8.524;2023-02-28T11:26:39;8.68;;;5.57;;
46006;SDS011;31738;50.188;8.524;2023-02-28T11:29:11;10.20;;;6.25;;
46006;SDS011;31738;50.188;8.524;2023-02-28T11:34:38;9.55;;;5.97;;
46006;SDS011;31738;50.188;8.524;2023-02-28T11:37:05;9.38;;;4.57;;
46006;SDS011;31738;50.188;8.524;2023-02-28T11:39:35;8.85;;;5.60;;
46006;SDS011;31738;50.188;8.524;2023-02-28T11:42:07;9.95;;;5.95;;
46006;SDS011;31738;50.188;8.524;2023-02-28T11:52:55;9.00;;;5.55;;
46006;SDS011;31738;50.188;8.524;2023-02-28T11:55:31;10.10;;;5.55;;
46006;SDS011;31738;50.188;8.524;2023-02-28T12:09:38;9.57;;;6.18;;
46006;SDS011;31738;50.188;8.524;2023-02-28T12:15:16;9.93;;;6.13;;
46006;SDS011;31738;50.188;8.524;2023-02-28T12:17:55;12.88;;;6.90;;
46006;SDS011;31738;50.188;8.524;2023-02-28T12:23:04;10.00;;;6.45;;
46006;SDS011;31738;50.188;8.524;2023-02-28T12:28:14;13.10;;;6.85;;
46006;SDS011;31738;50.188;8.524;2023-02-28T12:30:51;11.70;;;6.97;;
46006;SDS011;31738;50.188;8.524;2023-02-28T12:33:22;12.32;;;7.03;;
46006;SDS011;31738;50.188;8.524;2023-02-28T12:35:53;11.95;;;6.55;;
46006;SDS011;31738;50.188;8.524;2023-02-28T12:40:55;13.27;;;7.53;;
46006;SDS011;31738;50.188;8.524;2023-02-28T12:43:27;9.75;;;6.47;;
46006;SDS011;31738;50.188;8.524;2023-02-28T12:46:02;9.18;;;6.68;;
46006;SDS011;31738;50.188;8.524;2023-02-28T12:48:39;10.20;;;6.70;;
46006;SDS011;31738;50.188;8.524;2023-02-28T12:51:07;12.90;;;6.50;;
46006;SDS011;31738;50.188;8.524;2023-02-28T12:53:48;11.43;;;7.03;;
46006;SDS011;31738;50.188;8.524;2023-02-28T12:56:30;12.48;;;6.63;;
46006;SDS011;31738;50.188;8.524;2023-02-28T13:00:08;10.57;;;6.45;;
46006;SDS011;31738;50.188;8.524;2023-02-28T13:04:46;12.68;;;7.15;;
46006;SDS011;31738;50.188;8.524;2023-02-28T13:07:49;9.55;;;5.97;;
46006;SDS011;31738;50.188;8.524;2023-02-28T13:10:22;11.65;;;7.00;;
46006;SDS011;31738;50.188;8.524;2023-02-28T13:12:49;11.30;;;6.32;;
46006;SDS011;31738;50.188;8.524;2023-02-28T13:15:17;11.23;;;6.60;;
46006;SDS011;31738;50.188;8.524;2023-02-28T13:17:48;10.60;;;6.70;;
46006;SDS011;31738;50.188;8.524;2023-02-28T13:20:23;11.95;;;7.63;;
46006;SDS011;31738;50.188;8.524;2023-02-28T13:22:54;10.77;;;6.78;;
46006;SDS011;31738;50.188;8.524;2023-02-28T13:27:48;9.18;;;5.05;;
46006;SDS011;31738;50.188;8.524;2023-02-28T13:33:22;11.35;;;7.50;;
46006;SDS011;31738;50.188;8.524;2023-02-28T13:36:10;9.88;;;6.05;;
46006;SDS011;31738;50.188;8.524;2023-02-28T13:38:43;12.00;;;6.93;;
46006;SDS011;31738;50.188;8.524;2023-02-28T13:41:36;12.40;;;6.85;;
46006;SDS011;31738;50.188;8.524;2023-02-28T13:57:42;10.88;;;7.03;;
46006;SDS011;31738;50.188;8.524;2023-02-28T14:00:35;11.48;;;7.43;;
46006;SDS011;31738;50.188;8.524;2023-02-28T14:03:14;10.93;;;6.80;;
46006;SDS011;31738;50.188;8.524;2023-02-28T14:05:43;11.15;;;6.65;;
46006;SDS011;31738;50.188;8.524;2023-02-28T14:08:20;10.07;;;6.13;;
46006;SDS011;31738;50.188;8.524;2023-02-28T14:10:49;9.05;;;6.88;;
46006;SDS011;31738;50.188;8.524;2023-02-28T14:16:00;9.57;;;6.57;;
46006;SDS011;31738;50.188;8.524;2023-02-28T14:18:34;14.45;;;7.00;;
46006;SDS011;31738;50.188;8.524;2023-02-28T14:21:20;11.45;;;7.35;;
46006;SDS011;31738;50.188;8.524;2023-02-28T14:24:03;12.25;;;6.45;;
46006;SDS011;31738;50.188;8.524;2023-02-28T14:32:25;13.82;;;7.60;;
46006;SDS011;31738;50.188;8.524;2023-02-28T14:37:45;11.75;;;7.40;;
46006;SDS011;31738;50.188;8.524;2023-02-28T14:40:32;13.32;;;7.60;;
46006;SDS011;31738;50.188;8.524;2023-02-28T14:43:01;11.18;;;6.68;;
46006;SDS011;31738;50.188;8.524;2023-02-28T14:45:34;8.70;;;5.80;;
46006;SDS011;31738;50.188;8.524;2023-02-28T14:48:02;15.57;;;6.85;;
46006;SDS011;31738;50.188;8.524;2023-02-28T14:50:34;11.00;;;7.05;;
46006;SDS011;31738;50.188;8.524;2023-02-28T14:53:02;16.90;;;6.38;;
46006;SDS011;31738;50.188;8.524;2023-02-28T14:55:29;10.20;;;6.85;;
46006;SDS011;31738;50.188;8.524;2023-02-28T14:57:57;10.70;;;6.55;;
46006;SDS011;31738;50.188;8.524;2023-02-28T15:00:31;10.57;;;7.07;;
46006;SDS011;31738;50.188;8.524;2023-02-28T15:03:30;10.55;;;5.93;;
46006;SDS011;31738;50.188;8.524;2023-02-28T15:05:58;8.63;;;5.65;;
46006;SDS011;31738;50.188;8.524;2023-02-28T15:08:25;12.40;;;6.82;;
46006;SDS011;31738;50.188;8.524;2023-02-28T15:10:58;9.45;;;6.70;;
46006;SDS011;31738;50.188;8.524;2023-02-28T15:13:40;11.50;;;6.80;;
46006;SDS011;31738;50.188;8.524;2023-02-28T15:16:12;11.43;;;6.63;;
46006;SDS011;31738;50.188;8.524;2023-02-28T15:21:22;10.52;;;7.28;;
46006;SDS011;31738;50.188;8.524;2023-02-28T15:26:31;11.45;;;6.28;;
46006;SDS011;31738;50.188;8.524;2023-02-28T15:29:00;10.48;;;6.13;;
46006;SDS011;31738;50.188;8.524;2023-02-28T15:31:31;11.02;;;6.43;;
46006;SDS011;31738;50.188;8.524;2023-02-28T15:34:04;10.50;;;6.32;;
46006;SDS011;31738;50.188;8.524;2023-02-28T15:36:32;11.15;;;6.90;;
46006;SDS011;31738;50.188;8.524;2023-02-28T15:39:02;8.98;;;6.40;;
46006;SDS011;31738;50.188;8.524;2023-02-28T15:41:43;9.20;;;4.82;;
46006;SDS011;31738;50.188;8.524;2023-02-28T15:44:16;10.50;;;6.50;;
46006;SDS011;31738;50.188;8.524;2023-02-28T15:46:44;11.55;;;7.25;;
46006;SDS011;31738;50.188;8.524;2023-02-28T15:49:20;12.70;;;7.10;;
46006;SDS011;31738;50.188;8.524;2023-02-28T15:51:48;12.27;;;6.95;;
46006;SDS011;31738;50.188;8.524;2023-02-28T15:54:18;8.73;;;6.15;;
46006;SDS011;31738;50.188;8.524;2023-02-28T15:56:47;12.77;;;7.22;;
46006;SDS011;31738;50.188;8.524;2023-02-28T15:59:19;11.98;;;7.13;;
46006;SDS011;31738;50.188;8.524;2023-02-28T16:01:47;12.52;;;7.28;;
46006;SDS011;31738;50.188;8.524;2023-02-28T16:04:53;10.70;;;6.75;;
46006;SDS011;31738;50.188;8.524;2023-02-28T16:07:21;11.02;;;7.07;;
46006;SDS011;31738;50.188;8.524;2023-02-28T16:09:46;12.82;;;7.18;;
46006;SDS011;31738;50.188;8.524;2023-02-28T16:12:13;12.65;;;7.05;;
46006;SDS011;31738;50.188;8.524;2023-02-28T16:14:39;13.55;;;7.25;;
46006;SDS011;31738;50.188;8.524;2023-02-28T16:17:07;13.13;;;7.20;;
46006;SDS011;31738;50.188;8.524;2023-02-28T16:19:40;10.88;;;6.78;;
46006;SDS011;31738;50.188;8.524;2023-02-28T16:22:07;11.38;;;6.53;;
46006;SDS011;31738;50.188;8.524;2023-02-28T16:24:34;9.57;;;5.97;;
46006;SDS011;31738;50.188;8.524;2023-02-28T16:26:59;11.48;;;6.85;;
46006;SDS011;31738;50.188;8.524;2023-02-28T16:29:29;13.18;;;6.45;;
46006;SDS011;31738;50.188;8.524;2023-02-28T16:31:57;12.30;;;6.63;;
46006;SDS011;31738;50.188;8.524;2023-02-28T16:34:24;13.32;;;7.07;;
46006;SDS011;31738;50.188;8.524;2023-02-28T16:36:52;12.52;;;7.40;;
46006;SDS011;31738;50.188;8.524;2023-02-28T16:39:18;11.27;;;6.55;;
46006;SDS011;31738;50.188;8.524;2023-02-28T16:41:47;13.20;;;7.20;;
46006;SDS011;31738;50.188;8.524;2023-02-28T16:44:26;13.38;;;6.47;;
46006;SDS011;31738;50.188;8.524;2023-02-28T16:46:54;11.23;;;6.38;;
46006;SDS011;31738;50.188;8.524;2023-02-28T16:49:19;10.15;;;6.32;;
46006;SDS011;31738;50.188;8.524;2023-02-28T16:51:46;10.75;;;6.90;;
46006;SDS011;31738;50.188;8.524;2023-02-28T16:54:11;13.50;;;6.40;;
46006;SDS011;31738;50.188;8.524;2023-02-28T16:56:37;13.68;;;7.15;;
46006;SDS011;31738;50.188;8.524;2023-02-28T16:59:07;14.20;;;6.93;;
46006;SDS011;31738;50.188;8.524;2023-02-28T17:01:33;12.82;;;6.38;;
46006;SDS011;31738;50.188;8.524;2023-02-28T17:03:58;11.23;;;6.25;;
46006;SDS011;31738;50.188;8.524;2023-02-28T17:06:26;12.00;;;6.38;;
46006;SDS011;31738;50.188;8.524;2023-02-28T17:08:53;9.32;;;6.32;;